sensor_id;sensor_type;location;lat;lon;timestamp;temperature;humidity
29501;DHT22;16450;50.288;10.966;2023-06-22T00:00:14;21.10;95.90
29501;DHT22;16450;50.288;10.966;2023-06-22T00:03:18;21.10;95.90
29501;DHT22;16450;50.288;10.966;2023-06-22T00:06:20;21.00;95.90
29501;DHT22;16450;50.288;10.966;2023-06-22T00:09:22;21.00;96.00
29501;DHT22;16450;50.288;10.966;2023-06-22T00:12:25;21.00;96.00
29501;DHT22;16450;50.288;10.966;2023-06-22T00:15:27;20.90;96.10
29501;DHT22;16450;50.288;10.966;2023-06-22T00:18:29;20.90;96.20
29501;DHT22;16450;50.288;10.966;2023-06-22T00:21:33;20.90;96.20
29501;DHT22;16450;50.288;10.966;2023-06-22T00:24:35;20.80;96.20
29501;DHT22;16450;50.288;10.966;2023-06-22T00:27:36;20.70;96.20
29501;DHT22;16450;50.288;10.966;2023-06-22T00:30:38;20.70;96.30
29501;DHT22;16450;50.288;10.966;2023-06-22T00:33:40;20.60;96.30
29501;DHT22;16450;50.288;10.966;2023-06-22T00:36:42;20.60;96.40
29501;DHT22;16450;50.288;10.966;2023-06-22T00:39:44;20.60;96.40
29501;DHT22;16450;50.288;10.966;2023-06-22T00:42:46;20.60;96.50
29501;DHT22;16450;50.288;10.966;2023-06-22T00:45:48;20.50;96.50
29501;DHT22;16450;50.288;10.966;2023-06-22T00:48:50;20.50;96.60
29501;DHT22;16450;50.288;10.966;2023-06-22T00:51:53;20.50;96.70
29501;DHT22;16450;50.288;10.966;2023-06-22T00:54:56;20.40;96.80
29501;DHT22;16450;50.288;10.966;2023-06-22T00:57:58;20.40;96.70
29501;DHT22;16450;50.288;10.966;2023-06-22T01:01:00;20.40;96.90
29501;DHT22;16450;50.288;10.966;2023-06-22T01:04:03;20.40;96.80
29501;DHT22;16450;50.288;10.966;2023-06-22T01:07:22;20.40;96.90
29501;DHT22;16450;50.288;10.966;2023-06-22T01:10:53;20.30;96.80
29501;DHT22;16450;50.288;10.966;2023-06-22T01:14:03;20.30;96.80
29501;DHT22;16450;50.288;10.966;2023-06-22T01:17:07;20.30;97.10
29501;DHT22;16450;50.288;10.966;2023-06-22T01:20:10;20.20;97.20
29501;DHT22;16450;50.288;10.966;2023-06-22T01:23:37;20.30;97.30
29501;DHT22;16450;50.288;10.966;2023-06-22T01:29:51;20.20;97.30
29501;DHT22;16450;50.288;10.966;2023-06-22T01:32:58;20.20;97.40
29501;DHT22;16450;50.288;10.966;2023-06-22T01:36:01;20.20;97.50
29501;DHT22;16450;50.288;10.966;2023-06-22T01:39:04;20.20;97.40
29501;DHT22;16450;50.288;10.966;2023-06-22T01:42:07;20.20;97.40
29501;DHT22;16450;50.288;10.966;2023-06-22T01:45:10;20.10;97.40
29501;DHT22;16450;50.288;10.966;2023-06-22T01:48:13;20.10;97.40
29501;DHT22;16450;50.288;10.966;2023-06-22T01:51:15;20.00;97.50
29501;DHT22;16450;50.288;10.966;2023-06-22T01:54:17;20.00;97.50
29501;DHT22;16450;50.288;10.966;2023-06-22T01:57:19;19.90;97.70
29501;DHT22;16450;50.288;10.966;2023-06-22T02:00:22;19.90;97.80
29501;DHT22;16450;50.288;10.966;2023-06-22T02:03:31;19.90;97.80
29501;DHT22;16450;50.288;10.966;2023-06-22T02:06:37;19.80;97.70
29501;DHT22;16450;50.288;10.966;2023-06-22T02:09:43;19.80;97.80
29501;DHT22;16450;50.288;10.966;2023-06-22T02:12:47;19.70;97.90
29501;DHT22;16450;50.288;10.966;2023-06-22T02:15:49;19.70;98.00
29501;DHT22;16450;50.288;10.966;2023-06-22T02:18:52;19.70;98.10
29501;DHT22;16450;50.288;10.966;2023-06-22T02:21:54;19.60;98.10
29501;DHT22;16450;50.288;10.966;2023-06-22T02:24:56;19.60;98.20
29501;DHT22;16450;50.288;10.966;2023-06-22T02:27:58;19.60;98.40
29501;DHT22;16450;50.288;10.966;2023-06-22T02:31:00;19.70;98.50
29501;DHT22;16450;50.288;10.966;2023-06-22T02:34:01;19.70;98.70
29501;DHT22;16450;50.288;10.966;2023-06-22T02:37:04;19.70;98.70
29501;DHT22;16450;50.288;10.966;2023-06-22T02:40:07;19.70;98.80
29501;DHT22;16450;50.288;10.966;2023-06-22T02:43:10;19.70;98.80
29501;DHT22;16450;50.288;10.966;2023-06-22T02:46:13;19.70;99.00
29501;DHT22;16450;50.288;10.966;2023-06-22T02:49:15;19.80;99.10
29501;DHT22;16450;50.288;10.966;2023-06-22T02:52:17;19.80;99.20
29501;DHT22;16450;50.288;10.966;2023-06-22T02:55:19;19.80;99.30
29501;DHT22;16450;50.288;10.966;2023-06-22T02:58:21;19.80;99.40
29501;DHT22;16450;50.288;10.966;2023-06-22T03:01:23;19.80;99.50
29501;DHT22;16450;50.288;10.966;2023-06-22T03:04:26;19.90;99.60
29501;DHT22;16450;50.288;10.966;2023-06-22T03:07:28;19.90;99.60
29501;DHT22;16450;50.288;10.966;2023-06-22T03:10:32;19.90;99.60
29501;DHT22;16450;50.288;10.966;2023-06-22T03:13:33;19.90;99.40
29501;DHT22;16450;50.288;10.966;2023-06-22T03:16:35;19.90;99.40
29501;DHT22;16450;50.288;10.966;2023-06-22T03:19:38;19.80;99.40
29501;DHT22;16450;50.288;10.966;2023-06-22T03:22:41;19.70;99.50
29501;DHT22;16450;50.288;10.966;2023-06-22T03:25:44;19.60;99.60
29501;DHT22;16450;50.288;10.966;2023-06-22T03:28:48;19.60;99.70
29501;DHT22;16450;50.288;10.966;2023-06-22T03:31:50;19.60;99.90
29501;DHT22;16450;50.288;10.966;2023-06-22T03:34:52;19.60;99.90
29501;DHT22;16450;50.288;10.966;2023-06-22T03:37:54;19.50;99.90
29501;DHT22;16450;50.288;10.966;2023-06-22T03:40:56;19.50;99.90
29501;DHT22;16450;50.288;10.966;2023-06-22T03:43:59;19.40;99.90
29501;DHT22;16450;50.288;10.966;2023-06-22T03:47:01;19.40;99.90
29501;DHT22;16450;50.288;10.966;2023-06-22T03:50:04;19.30;99.90
29501;DHT22;16450;50.288;10.966;2023-06-22T03:53:06;19.20;99.90
29501;DHT22;16450;50.288;10.966;2023-06-22T03:56:07;19.20;99.90
29501;DHT22;16450;50.288;10.966;2023-06-22T03:59:09;19.00;99.90
29501;DHT22;16450;50.288;10.966;2023-06-22T04:02:11;19.00;99.90
29501;DHT22;16450;50.288;10.966;2023-06-22T04:05:13;19.00;99.90
29501;DHT22;16450;50.288;10.966;2023-06-22T04:08:15;18.90;99.90
29501;DHT22;16450;50.288;10.966;2023-06-22T04:11:18;18.80;99.90
29501;DHT22;16450;50.288;10.966;2023-06-22T04:14:20;18.80;99.90
29501;DHT22;16450;50.288;10.966;2023-06-22T04:17:22;18.80;99.90
29501;DHT22;16450;50.288;10.966;2023-06-22T04:20:27;18.80;99.90
29501;DHT22;16450;50.288;10.966;2023-06-22T04:23:31;18.80;99.90
29501;DHT22;16450;50.288;10.966;2023-06-22T04:26:34;18.80;99.90
29501;DHT22;16450;50.288;10.966;2023-06-22T04:29:38;18.80;99.90
29501;DHT22;16450;50.288;10.966;2023-06-22T04:32:50;18.90;99.90
29501;DHT22;16450;50.288;10.966;2023-06-22T04:35:59;19.00;99.90
29501;DHT22;16450;50.288;10.966;2023-06-22T04:39:10;19.00;99.90
29501;DHT22;16450;50.288;10.966;2023-06-22T04:42:13;19.10;99.90
29501;DHT22;16450;50.288;10.966;2023-06-22T04:45:15;19.20;99.90
29501;DHT22;16450;50.288;10.966;2023-06-22T04:48:17;19.30;99.90
29501;DHT22;16450;50.288;10.966;2023-06-22T04:51:19;19.40;99.90
29501;DHT22;16450;50.288;10.966;2023-06-22T04:54:23;19.50;99.90
29501;DHT22;16450;50.288;10.966;2023-06-22T04:57:25;19.60;99.90
29501;DHT22;16450;50.288;10.966;2023-06-22T05:00:34;19.80;99.90
29501;DHT22;16450;50.288;10.966;2023-06-22T05:03:37;19.90;99.90
29501;DHT22;16450;50.288;10.966;2023-06-22T05:06:42;20.10;99.90
29501;DHT22;16450;50.288;10.966;2023-06-22T05:09:44;20.20;99.90
29501;DHT22;16450;50.288;10.966;2023-06-22T05:12:46;20.50;99.90
29501;DHT22;16450;50.288;10.966;2023-06-22T05:15:48;20.90;99.90
29501;DHT22;16450;50.288;10.966;2023-06-22T05:18:59;21.30;99.90
29501;DHT22;16450;50.288;10.966;2023-06-22T05:22:01;21.70;99.90
29501;DHT22;16450;50.288;10.966;2023-06-22T05:25:04;22.20;99.90
29501;DHT22;16450;50.288;10.966;2023-06-22T05:28:06;22.60;99.90
29501;DHT22;16450;50.288;10.966;2023-06-22T05:31:16;23.10;99.90
29501;DHT22;16450;50.288;10.966;2023-06-22T05:34:18;23.60;99.90
29501;DHT22;16450;50.288;10.966;2023-06-22T05:37:20;24.00;99.90
29501;DHT22;16450;50.288;10.966;2023-06-22T05:40:22;24.50;99.90
29501;DHT22;16450;50.288;10.966;2023-06-22T05:43:23;24.90;99.90
29501;DHT22;16450;50.288;10.966;2023-06-22T05:46:25;25.20;99.90
29501;DHT22;16450;50.288;10.966;2023-06-22T05:49:27;25.50;99.90
29501;DHT22;16450;50.288;10.966;2023-06-22T05:52:34;25.80;99.90
29501;DHT22;16450;50.288;10.966;2023-06-22T05:55:36;26.10;99.90
29501;DHT22;16450;50.288;10.966;2023-06-22T05:58:38;26.30;99.90
29501;DHT22;16450;50.288;10.966;2023-06-22T06:01:40;26.60;99.90
29501;DHT22;16450;50.288;10.966;2023-06-22T06:04:42;26.80;99.90
29501;DHT22;16450;50.288;10.966;2023-06-22T06:07:45;27.00;99.90
29501;DHT22;16450;50.288;10.966;2023-06-22T06:10:46;27.30;99.90
29501;DHT22;16450;50.288;10.966;2023-06-22T06:13:48;27.60;99.90
29501;DHT22;16450;50.288;10.966;2023-06-22T06:16:50;27.80;99.90
29501;DHT22;16450;50.288;10.966;2023-06-22T06:19:53;28.00;99.90
29501;DHT22;16450;50.288;10.966;2023-06-22T06:22:55;28.20;99.90
29501;DHT22;16450;50.288;10.966;2023-06-22T06:25:57;28.50;99.90
29501;DHT22;16450;50.288;10.966;2023-06-22T06:29:00;28.60;99.90
29501;DHT22;16450;50.288;10.966;2023-06-22T06:32:02;28.90;99.90
29501;DHT22;16450;50.288;10.966;2023-06-22T06:35:06;29.00;99.90
29501;DHT22;16450;50.288;10.966;2023-06-22T06:38:08;29.20;99.90
29501;DHT22;16450;50.288;10.966;2023-06-22T06:41:10;29.30;99.70
29501;DHT22;16450;50.288;10.966;2023-06-22T06:44:11;29.30;99.30
29501;DHT22;16450;50.288;10.966;2023-06-22T06:47:13;29.20;99.10
29501;DHT22;16450;50.288;10.966;2023-06-22T06:50:15;29.00;99.10
29501;DHT22;16450;50.288;10.966;2023-06-22T06:53:17;28.90;99.20
29501;DHT22;16450;50.288;10.966;2023-06-22T06:56:19;28.80;99.70
29501;DHT22;16450;50.288;10.966;2023-06-22T06:59:21;28.90;99.70
29501;DHT22;16450;50.288;10.966;2023-06-22T07:02:25;29.00;99.90
29501;DHT22;16450;50.288;10.966;2023-06-22T07:05:29;29.10;99.90
29501;DHT22;16450;50.288;10.966;2023-06-22T07:08:31;29.40;99.90
29501;DHT22;16450;50.288;10.966;2023-06-22T07:11:33;29.50;99.70
29501;DHT22;16450;50.288;10.966;2023-06-22T07:14:35;29.70;99.10
29501;DHT22;16450;50.288;10.966;2023-06-22T07:17:37;29.90;98.50
29501;DHT22;16450;50.288;10.966;2023-06-22T07:20:39;30.10;98.80
29501;DHT22;16450;50.288;10.966;2023-06-22T07:23:43;30.30;98.70
29501;DHT22;16450;50.288;10.966;2023-06-22T07:26:49;30.40;98.50
29501;DHT22;16450;50.288;10.966;2023-06-22T07:29:51;30.60;98.60
29501;DHT22;16450;50.288;10.966;2023-06-22T07:32:53;30.70;97.90
29501;DHT22;16450;50.288;10.966;2023-06-22T07:35:56;30.90;97.80
29501;DHT22;16450;50.288;10.966;2023-06-22T07:38:57;31.10;97.50
29501;DHT22;16450;50.288;10.966;2023-06-22T07:41:59;31.20;97.40
29501;DHT22;16450;50.288;10.966;2023-06-22T07:45:03;31.40;97.00
29501;DHT22;16450;50.288;10.966;2023-06-22T07:48:06;31.50;95.50
29501;DHT22;16450;50.288;10.966;2023-06-22T07:51:08;31.60;96.10
29501;DHT22;16450;50.288;10.966;2023-06-22T07:54:10;31.60;95.70
29501;DHT22;16450;50.288;10.966;2023-06-22T07:57:12;31.70;96.00
29501;DHT22;16450;50.288;10.966;2023-06-22T08:00:14;31.80;95.90
29501;DHT22;16450;50.288;10.966;2023-06-22T08:03:17;31.90;95.40
29501;DHT22;16450;50.288;10.966;2023-06-22T08:06:19;32.00;94.80
29501;DHT22;16450;50.288;10.966;2023-06-22T08:09:21;32.00;94.50
29501;DHT22;16450;50.288;10.966;2023-06-22T08:12:23;32.10;93.80
29501;DHT22;16450;50.288;10.966;2023-06-22T08:15:26;32.10;94.00
29501;DHT22;16450;50.288;10.966;2023-06-22T08:18:29;32.20;93.60
29501;DHT22;16450;50.288;10.966;2023-06-22T08:21:30;32.20;93.50
29501;DHT22;16450;50.288;10.966;2023-06-22T08:24:32;32.20;92.80
29501;DHT22;16450;50.288;10.966;2023-06-22T08:27:34;32.20;92.80
29501;DHT22;16450;50.288;10.966;2023-06-22T08:30:37;32.30;92.70
29501;DHT22;16450;50.288;10.966;2023-06-22T08:33:39;32.30;92.60
29501;DHT22;16450;50.288;10.966;2023-06-22T08:36:50;32.40;91.70
29501;DHT22;16450;50.288;10.966;2023-06-22T08:39:54;32.40;91.20
29501;DHT22;16450;50.288;10.966;2023-06-22T08:42:56;32.40;91.10
29501;DHT22;16450;50.288;10.966;2023-06-22T08:45:57;32.40;90.90
29501;DHT22;16450;50.288;10.966;2023-06-22T08:48:59;32.40;90.20
29501;DHT22;16450;50.288;10.966;2023-06-22T08:52:01;32.50;90.80
29501;DHT22;16450;50.288;10.966;2023-06-22T08:55:04;32.50;90.60
29501;DHT22;16450;50.288;10.966;2023-06-22T08:58:06;32.60;90.00
29501;DHT22;16450;50.288;10.966;2023-06-22T09:01:08;32.70;89.50
29501;DHT22;16450;50.288;10.966;2023-06-22T09:04:10;32.70;88.90
29501;DHT22;16450;50.288;10.966;2023-06-22T09:07:13;32.80;87.70
29501;DHT22;16450;50.288;10.966;2023-06-22T09:10:14;32.90;88.00
29501;DHT22;16450;50.288;10.966;2023-06-22T09:13:16;32.90;87.90
29501;DHT22;16450;50.288;10.966;2023-06-22T09:16:18;33.00;87.10
29501;DHT22;16450;50.288;10.966;2023-06-22T09:19:20;33.10;86.20
29501;DHT22;16450;50.288;10.966;2023-06-22T09:22:22;33.20;86.30
29501;DHT22;16450;50.288;10.966;2023-06-22T09:25:24;33.20;85.30
29501;DHT22;16450;50.288;10.966;2023-06-22T09:28:26;33.20;84.40
29501;DHT22;16450;50.288;10.966;2023-06-22T09:31:28;33.30;84.20
29501;DHT22;16450;50.288;10.966;2023-06-22T09:34:30;33.40;83.80
29501;DHT22;16450;50.288;10.966;2023-06-22T09:37:33;33.40;83.40
29501;DHT22;16450;50.288;10.966;2023-06-22T09:40:34;33.40;81.20
29501;DHT22;16450;50.288;10.966;2023-06-22T09:43:41;33.40;81.20
29501;DHT22;16450;50.288;10.966;2023-06-22T09:46:43;33.40;81.20
29501;DHT22;16450;50.288;10.966;2023-06-22T09:49:45;33.40;81.20
29501;DHT22;16450;50.288;10.966;2023-06-22T09:52:49;33.30;79.50
29501;DHT22;16450;50.288;10.966;2023-06-22T09:55:56;33.30;78.20
29501;DHT22;16450;50.288;10.966;2023-06-22T09:58:58;33.20;77.60
29501;DHT22;16450;50.288;10.966;2023-06-22T10:02:18;33.20;78.80
29501;DHT22;16450;50.288;10.966;2023-06-22T10:05:20;33.20;78.40
29501;DHT22;16450;50.288;10.966;2023-06-22T10:08:22;33.20;77.60
29501;DHT22;16450;50.288;10.966;2023-06-22T10:11:24;33.10;76.90
29501;DHT22;16450;50.288;10.966;2023-06-22T10:14:30;33.10;76.40
29501;DHT22;16450;50.288;10.966;2023-06-22T10:17:33;33.00;75.80
29501;DHT22;16450;50.288;10.966;2023-06-22T10:20:35;33.00;74.50
29501;DHT22;16450;50.288;10.966;2023-06-22T10:23:37;33.00;74.70
29501;DHT22;16450;50.288;10.966;2023-06-22T10:26:39;33.00;76.40
29501;DHT22;16450;50.288;10.966;2023-06-22T10:29:41;33.00;75.50
29501;DHT22;16450;50.288;10.966;2023-06-22T10:32:43;33.00;76.10
29501;DHT22;16450;50.288;10.966;2023-06-22T10:35:46;33.00;75.00
29501;DHT22;16450;50.288;10.966;2023-06-22T10:38:48;33.10;74.40
29501;DHT22;16450;50.288;10.966;2023-06-22T10:41:50;33.10;74.00
29501;DHT22;16450;50.288;10.966;2023-06-22T10:44:52;33.10;73.40
29501;DHT22;16450;50.288;10.966;2023-06-22T10:47:54;33.10;73.20
29501;DHT22;16450;50.288;10.966;2023-06-22T10:50:56;33.10;71.80
29501;DHT22;16450;50.288;10.966;2023-06-22T10:53:58;33.00;70.40
29501;DHT22;16450;50.288;10.966;2023-06-22T10:57:00;32.90;70.30
29501;DHT22;16450;50.288;10.966;2023-06-22T11:00:03;32.80;70.80
29501;DHT22;16450;50.288;10.966;2023-06-22T11:03:07;32.90;70.80
29501;DHT22;16450;50.288;10.966;2023-06-22T11:06:10;32.80;71.40
29501;DHT22;16450;50.288;10.966;2023-06-22T11:09:12;32.90;71.10
29501;DHT22;16450;50.288;10.966;2023-06-22T11:12:17;32.90;71.00
29501;DHT22;16450;50.288;10.966;2023-06-22T11:15:19;33.00;70.80
29501;DHT22;16450;50.288;10.966;2023-06-22T11:18:21;33.00;71.00
29501;DHT22;16450;50.288;10.966;2023-06-22T11:21:24;33.00;71.60
29501;DHT22;16450;50.288;10.966;2023-06-22T11:24:26;33.10;70.20
29501;DHT22;16450;50.288;10.966;2023-06-22T11:27:28;33.00;71.30
29501;DHT22;16450;50.288;10.966;2023-06-22T11:30:30;33.10;70.90
29501;DHT22;16450;50.288;10.966;2023-06-22T11:33:33;33.10;70.30
29501;DHT22;16450;50.288;10.966;2023-06-22T11:36:34;33.20;70.80
29501;DHT22;16450;50.288;10.966;2023-06-22T11:39:37;33.20;69.60
29501;DHT22;16450;50.288;10.966;2023-06-22T11:42:48;33.30;69.10
29501;DHT22;16450;50.288;10.966;2023-06-22T11:45:50;33.30;68.90
29501;DHT22;16450;50.288;10.966;2023-06-22T11:48:52;33.20;67.70
29501;DHT22;16450;50.288;10.966;2023-06-22T11:51:54;33.20;67.10
29501;DHT22;16450;50.288;10.966;2023-06-22T11:54:56;33.20;66.80
29501;DHT22;16450;50.288;10.966;2023-06-22T11:57:58;33.10;66.70
29501;DHT22;16450;50.288;10.966;2023-06-22T12:01:05;33.10;66.50
29501;DHT22;16450;50.288;10.966;2023-06-22T12:04:06;33.10;67.90
29501;DHT22;16450;50.288;10.966;2023-06-22T12:07:08;33.20;67.00
29501;DHT22;16450;50.288;10.966;2023-06-22T12:10:10;33.20;68.00
29501;DHT22;16450;50.288;10.966;2023-06-22T12:13:13;33.20;66.10
29501;DHT22;16450;50.288;10.966;2023-06-22T12:16:15;33.20;65.80
29501;DHT22;16450;50.288;10.966;2023-06-22T12:19:17;33.20;65.90
29501;DHT22;16450;50.288;10.966;2023-06-22T12:22:18;33.30;66.80
29501;DHT22;16450;50.288;10.966;2023-06-22T12:25:20;33.30;64.90
29501;DHT22;16450;50.288;10.966;2023-06-22T12:28:22;33.40;65.00
29501;DHT22;16450;50.288;10.966;2023-06-22T12:31:25;33.40;65.60
29501;DHT22;16450;50.288;10.966;2023-06-22T12:34:27;33.50;64.60
29501;DHT22;16450;50.288;10.966;2023-06-22T12:37:28;33.60;64.10
29501;DHT22;16450;50.288;10.966;2023-06-22T12:40:31;33.70;64.10
29501;DHT22;16450;50.288;10.966;2023-06-22T12:43:33;33.80;64.60
29501;DHT22;16450;50.288;10.966;2023-06-22T12:46:35;33.80;62.40
29501;DHT22;16450;50.288;10.966;2023-06-22T12:49:39;33.90;60.70
29501;DHT22;16450;50.288;10.966;2023-06-22T12:52:41;33.70;60.40
29501;DHT22;16450;50.288;10.966;2023-06-22T12:55:43;33.70;59.90
29501;DHT22;16450;50.288;10.966;2023-06-22T12:58:45;33.50;60.60
29501;DHT22;16450;50.288;10.966;2023-06-22T13:01:47;33.50;59.90
29501;DHT22;16450;50.288;10.966;2023-06-22T13:04:49;33.40;61.00
29501;DHT22;16450;50.288;10.966;2023-06-22T13:07:51;33.40;61.50
29501;DHT22;16450;50.288;10.966;2023-06-22T13:10:53;33.40;61.10
29501;DHT22;16450;50.288;10.966;2023-06-22T13:13:55;33.30;62.20
29501;DHT22;16450;50.288;10.966;2023-06-22T13:16:56;33.40;63.60
29501;DHT22;16450;50.288;10.966;2023-06-22T13:19:58;33.40;64.00
29501;DHT22;16450;50.288;10.966;2023-06-22T13:23:00;33.60;63.70
29501;DHT22;16450;50.288;10.966;2023-06-22T13:26:02;33.70;62.50
29501;DHT22;16450;50.288;10.966;2023-06-22T13:29:04;33.90;61.80
29501;DHT22;16450;50.288;10.966;2023-06-22T13:32:06;34.00;60.40
29501;DHT22;16450;50.288;10.966;2023-06-22T13:35:11;34.10;60.00
29501;DHT22;16450;50.288;10.966;2023-06-22T13:38:13;34.20;58.80
29501;DHT22;16450;50.288;10.966;2023-06-22T13:41:15;34.20;59.80
29501;DHT22;16450;50.288;10.966;2023-06-22T13:44:17;34.30;59.00
29501;DHT22;16450;50.288;10.966;2023-06-22T13:47:19;34.20;57.50
29501;DHT22;16450;50.288;10.966;2023-06-22T13:50:21;34.20;57.10
29501;DHT22;16450;50.288;10.966;2023-06-22T13:53:25;34.10;57.20
29501;DHT22;16450;50.288;10.966;2023-06-22T13:56:27;34.10;56.30
29501;DHT22;16450;50.288;10.966;2023-06-22T13:59:29;34.00;56.70
29501;DHT22;16450;50.288;10.966;2023-06-22T14:02:32;33.90;56.70
29501;DHT22;16450;50.288;10.966;2023-06-22T14:05:34;33.80;57.60
29501;DHT22;16450;50.288;10.966;2023-06-22T14:08:36;33.70;58.20
29501;DHT22;16450;50.288;10.966;2023-06-22T14:11:43;33.80;56.80
29501;DHT22;16450;50.288;10.966;2023-06-22T14:14:45;33.80;57.00
29501;DHT22;16450;50.288;10.966;2023-06-22T14:17:46;33.70;56.50
29501;DHT22;16450;50.288;10.966;2023-06-22T14:20:49;33.70;56.70
29501;DHT22;16450;50.288;10.966;2023-06-22T14:23:50;33.70;57.00
29501;DHT22;16450;50.288;10.966;2023-06-22T14:26:53;33.70;56.80
29501;DHT22;16450;50.288;10.966;2023-06-22T14:29:55;33.70;56.60
29501;DHT22;16450;50.288;10.966;2023-06-22T14:32:57;33.70;56.70
29501;DHT22;16450;50.288;10.966;2023-06-22T14:35:59;33.90;56.40
29501;DHT22;16450;50.288;10.966;2023-06-22T14:39:01;33.90;55.70
29501;DHT22;16450;50.288;10.966;2023-06-22T14:42:03;34.00;56.00
29501;DHT22;16450;50.288;10.966;2023-06-22T14:45:08;33.90;55.60
29501;DHT22;16450;50.288;10.966;2023-06-22T14:48:09;33.90;54.40
29501;DHT22;16450;50.288;10.966;2023-06-22T14:51:12;33.90;54.90
29501;DHT22;16450;50.288;10.966;2023-06-22T14:54:17;33.80;54.50
29501;DHT22;16450;50.288;10.966;2023-06-22T14:57:19;33.70;54.10
29501;DHT22;16450;50.288;10.966;2023-06-22T15:00:21;33.70;54.10
29501;DHT22;16450;50.288;10.966;2023-06-22T15:03:23;33.70;54.10
29501;DHT22;16450;50.288;10.966;2023-06-22T15:06:29;33.60;54.40
29501;DHT22;16450;50.288;10.966;2023-06-22T15:09:31;33.60;54.10
29501;DHT22;16450;50.288;10.966;2023-06-22T15:12:33;33.60;54.70
29501;DHT22;16450;50.288;10.966;2023-06-22T15:15:35;33.70;54.10
29501;DHT22;16450;50.288;10.966;2023-06-22T15:18:37;33.80;53.50
29501;DHT22;16450;50.288;10.966;2023-06-22T15:21:39;33.80;53.50
29501;DHT22;16450;50.288;10.966;2023-06-22T15:24:41;33.90;53.40
29501;DHT22;16450;50.288;10.966;2023-06-22T15:27:43;33.80;52.70
29501;DHT22;16450;50.288;10.966;2023-06-22T15:30:45;33.80;52.80
29501;DHT22;16450;50.288;10.966;2023-06-22T15:33:50;33.70;53.00
29501;DHT22;16450;50.288;10.966;2023-06-22T15:36:52;33.70;52.40
29501;DHT22;16450;50.288;10.966;2023-06-22T15:39:53;33.60;52.70
29501;DHT22;16450;50.288;10.966;2023-06-22T15:42:57;33.50;53.30
29501;DHT22;16450;50.288;10.966;2023-06-22T15:45:59;33.50;53.00
29501;DHT22;16450;50.288;10.966;2023-06-22T15:49:01;33.40;53.40
29501;DHT22;16450;50.288;10.966;2023-06-22T15:52:03;33.40;52.50
29501;DHT22;16450;50.288;10.966;2023-06-22T15:55:06;33.30;52.60
29501;DHT22;16450;50.288;10.966;2023-06-22T15:58:09;33.30;53.10
29501;DHT22;16450;50.288;10.966;2023-06-22T16:01:14;33.20;52.50
29501;DHT22;16450;50.288;10.966;2023-06-22T16:04:16;33.10;53.60
29501;DHT22;16450;50.288;10.966;2023-06-22T16:07:18;33.10;53.70
29501;DHT22;16450;50.288;10.966;2023-06-22T16:10:20;33.10;53.80
29501;DHT22;16450;50.288;10.966;2023-06-22T16:13:22;33.10;54.50
29501;DHT22;16450;50.288;10.966;2023-06-22T16:16:24;33.10;54.70
29501;DHT22;16450;50.288;10.966;2023-06-22T16:19:26;33.10;54.60
29501;DHT22;16450;50.288;10.966;2023-06-22T16:22:28;33.20;54.10
29501;DHT22;16450;50.288;10.966;2023-06-22T16:25:31;33.20;54.30
29501;DHT22;16450;50.288;10.966;2023-06-22T16:28:33;33.20;54.90
29501;DHT22;16450;50.288;10.966;2023-06-22T16:31:35;33.20;54.80
29501;DHT22;16450;50.288;10.966;2023-06-22T16:34:37;33.30;53.90
29501;DHT22;16450;50.288;10.966;2023-06-22T16:37:39;33.30;53.70
29501;DHT22;16450;50.288;10.966;2023-06-22T16:40:41;33.20;53.60
29501;DHT22;16450;50.288;10.966;2023-06-22T16:43:43;33.20;54.50
29501;DHT22;16450;50.288;10.966;2023-06-22T16:46:45;33.10;53.80
29501;DHT22;16450;50.288;10.966;2023-06-22T16:49:47;33.00;53.70
29501;DHT22;16450;50.288;10.966;2023-06-22T16:52:50;32.90;53.40
29501;DHT22;16450;50.288;10.966;2023-06-22T16:55:52;32.80;53.90
29501;DHT22;16450;50.288;10.966;2023-06-22T16:58:56;32.80;54.90
29501;DHT22;16450;50.288;10.966;2023-06-22T17:02:15;32.70;55.70
29501;DHT22;16450;50.288;10.966;2023-06-22T17:05:18;32.70;56.00
29501;DHT22;16450;50.288;10.966;2023-06-22T17:08:21;32.60;56.00
29501;DHT22;16450;50.288;10.966;2023-06-22T17:11:24;32.60;55.70
29501;DHT22;16450;50.288;10.966;2023-06-22T17:14:26;32.50;55.10
29501;DHT22;16450;50.288;10.966;2023-06-22T17:17:29;32.50;56.00
29501;DHT22;16450;50.288;10.966;2023-06-22T17:20:32;32.40;55.40
29501;DHT22;16450;50.288;10.966;2023-06-22T17:23:34;32.40;55.50
29501;DHT22;16450;50.288;10.966;2023-06-22T17:26:36;32.30;55.60
29501;DHT22;16450;50.288;10.966;2023-06-22T17:29:38;32.20;55.60
29501;DHT22;16450;50.288;10.966;2023-06-22T17:32:39;32.20;55.60
29501;DHT22;16450;50.288;10.966;2023-06-22T17:35:50;32.20;56.10
29501;DHT22;16450;50.288;10.966;2023-06-22T17:38:59;32.20;55.90
29501;DHT22;16450;50.288;10.966;2023-06-22T17:42:01;32.10;56.10
29501;DHT22;16450;50.288;10.966;2023-06-22T17:45:03;32.00;56.40
29501;DHT22;16450;50.288;10.966;2023-06-22T17:48:08;32.00;57.10
29501;DHT22;16450;50.288;10.966;2023-06-22T17:51:12;31.90;57.00
29501;DHT22;16450;50.288;10.966;2023-06-22T17:54:14;31.90;57.50
29501;DHT22;16450;50.288;10.966;2023-06-22T17:57:17;31.80;58.00
29501;DHT22;16450;50.288;10.966;2023-06-22T18:00:20;31.70;58.40
29501;DHT22;16450;50.288;10.966;2023-06-22T18:03:25;31.70;59.10
29501;DHT22;16450;50.288;10.966;2023-06-22T18:06:27;31.70;59.10
29501;DHT22;16450;50.288;10.966;2023-06-22T18:09:31;31.60;59.60
29501;DHT22;16450;50.288;10.966;2023-06-22T18:12:34;31.60;60.00
29501;DHT22;16450;50.288;10.966;2023-06-22T18:15:37;31.50;60.00
29501;DHT22;16450;50.288;10.966;2023-06-22T18:18:40;31.50;59.80
29501;DHT22;16450;50.288;10.966;2023-06-22T18:21:45;31.40;60.20
29501;DHT22;16450;50.288;10.966;2023-06-22T18:24:52;31.30;60.40
29501;DHT22;16450;50.288;10.966;2023-06-22T18:27:57;31.30;60.70
29501;DHT22;16450;50.288;10.966;2023-06-22T18:31:00;31.20;61.00
29501;DHT22;16450;50.288;10.966;2023-06-22T18:34:02;31.10;61.00
29501;DHT22;16450;50.288;10.966;2023-06-22T18:37:11;31.10;61.40
29501;DHT22;16450;50.288;10.966;2023-06-22T18:40:14;31.00;61.80
29501;DHT22;16450;50.288;10.966;2023-06-22T18:43:22;30.90;62.60
29501;DHT22;16450;50.288;10.966;2023-06-22T18:46:37;30.90;62.70
29501;DHT22;16450;50.288;10.966;2023-06-22T18:52:42;30.70;62.70
29501;DHT22;16450;50.288;10.966;2023-06-22T18:55:49;30.60;62.10
29501;DHT22;16450;50.288;10.966;2023-06-22T18:58:56;30.50;62.40
29501;DHT22;16450;50.288;10.966;2023-06-22T19:02:01;30.40;63.00